sensor_id;sensor_type;location;lat;lon;timestamp;P1;durP1;ratioP1;P2;durP2;ratioP2
73959;SDS011;62316;48.920;2.342;2022-09-01T00:01:03;19.00;;;17.75;;
73959;SDS011;62316;48.920;2.342;2022-09-01T00:03:42;17.33;;;16.00;;
73959;SDS011;62316;48.920;2.342;2022-09-01T00:06:10;15.00;;;14.00;;
73959;SDS011;62316;48.920;2.342;2022-09-01T00:08:36;16.25;;;15.75;;
73959;SDS011;62316;48.920;2.342;2022-09-01T00:11:01;13.33;;;13.33;;
73959;SDS011;62316;48.920;2.342;2022-09-01T00:13:27;12.67;;;12.33;;
73959;SDS011;62316;48.920;2.342;2022-09-01T00:15:57;16.00;;;15.67;;
73959;SDS011;62316;48.920;2.342;2022-09-01T00:18:23;16.67;;;15.33;;
73959;SDS011;62316;48.920;2.342;2022-09-01T00:20:48;15.25;;;12.75;;
73959;SDS011;62316;48.920;2.342;2022-09-01T00:23:13;18.50;;;16.00;;
73959;SDS011;62316;48.920;2.342;2022-09-01T00:25:39;15.67;;;14.67;;
73959;SDS011;62316;48.920;2.342;2022-09-01T00:28:04;16.75;;;16.00;;
73959;SDS011;62316;48.920;2.342;2022-09-01T00:30:29;14.33;;;14.33;;
73959;SDS011;62316;48.920;2.342;2022-09-01T00:32:55;14.25;;;14.25;;
73959;SDS011;62316;48.920;2.342;2022-09-01T00:35:20;17.50;;;15.00;;
73959;SDS011;62316;48.920;2.342;2022-09-01T00:37:46;14.67;;;14.67;;
73959;SDS011;62316;48.920;2.342;2022-09-01T00:40:12;15.67;;;13.67;;
73959;SDS011;62316;48.920;2.342;2022-09-01T00:42:39;16.00;;;15.25;;
73959;SDS011;62316;48.920;2.342;2022-09-01T00:45:05;16.50;;;15.00;;
73959;SDS011;62316;48.920;2.342;2022-09-01T00:47:32;14.67;;;13.00;;
73959;SDS011;62316;48.920;2.342;2022-09-01T00:49:59;16.33;;;15.67;;
73959;SDS011;62316;48.920;2.342;2022-09-01T00:54:56;16.00;;;15.00;;
73959;SDS011;62316;48.920;2.342;2022-09-01T00:57:24;15.00;;;14.00;;
73959;SDS011;62316;48.920;2.342;2022-09-01T01:00:24;14.67;;;13.00;;
73959;SDS011;62316;48.920;2.342;2022-09-01T01:02:46;13.00;;;12.33;;
73959;SDS011;62316;48.920;2.342;2022-09-01T01:05:13;14.33;;;10.33;;
73959;SDS011;62316;48.920;2.342;2022-09-01T01:07:39;17.00;;;15.33;;
73959;SDS011;62316;48.920;2.342;2022-09-01T01:10:08;11.67;;;10.67;;
73959;SDS011;62316;48.920;2.342;2022-09-01T01:12:36;15.75;;;15.25;;
73959;SDS011;62316;48.920;2.342;2022-09-01T01:15:04;13.50;;;13.25;;
73959;SDS011;62316;48.920;2.342;2022-09-01T01:17:31;15.67;;;15.67;;
73959;SDS011;62316;48.920;2.342;2022-09-01T01:19:57;15.33;;;14.00;;
73959;SDS011;62316;48.920;2.342;2022-09-01T01:30:36;13.67;;;13.67;;
73959;SDS011;62316;48.920;2.342;2022-09-01T01:33:04;11.33;;;11.33;;
73959;SDS011;62316;48.920;2.342;2022-09-01T01:35:30;13.75;;;12.00;;
73959;SDS011;62316;48.920;2.342;2022-09-01T01:37:58;14.75;;;14.75;;
73959;SDS011;62316;48.920;2.342;2022-09-01T01:40:24;11.00;;;11.00;;
73959;SDS011;62316;48.920;2.342;2022-09-01T01:42:56;12.33;;;12.33;;
73959;SDS011;62316;48.920;2.342;2022-09-01T01:45:22;18.00;;;17.00;;
73959;SDS011;62316;48.920;2.342;2022-09-01T01:47:49;17.25;;;13.25;;
73959;SDS011;62316;48.920;2.342;2022-09-01T01:50:25;11.33;;;11.00;;
73959;SDS011;62316;48.920;2.342;2022-09-01T01:52:52;12.75;;;11.25;;
73959;SDS011;62316;48.920;2.342;2022-09-01T01:55:23;16.67;;;15.33;;
73959;SDS011;62316;48.920;2.342;2022-09-01T01:57:52;12.00;;;12.00;;
73959;SDS011;62316;48.920;2.342;2022-09-01T02:00:19;15.00;;;14.67;;
73959;SDS011;62316;48.920;2.342;2022-09-01T02:02:47;15.00;;;13.67;;
73959;SDS011;62316;48.920;2.342;2022-09-01T02:05:16;7.33;;;7.33;;
73959;SDS011;62316;48.920;2.342;2022-09-01T02:08:04;12.67;;;12.67;;
73959;SDS011;62316;48.920;2.342;2022-09-01T02:10:33;14.33;;;14.33;;
73959;SDS011;62316;48.920;2.342;2022-09-01T02:13:01;14.33;;;11.33;;
73959;SDS011;62316;48.920;2.342;2022-09-01T02:15:29;14.00;;;10.00;;
73959;SDS011;62316;48.920;2.342;2022-09-01T02:17:56;11.67;;;11.67;;
73959;SDS011;62316;48.920;2.342;2022-09-01T02:20:24;11.00;;;11.00;;
73959;SDS011;62316;48.920;2.342;2022-09-01T02:22:54;14.50;;;13.75;;
73959;SDS011;62316;48.920;2.342;2022-09-01T02:25:20;13.33;;;13.33;;
73959;SDS011;62316;48.920;2.342;2022-09-01T02:27:47;14.33;;;13.33;;
73959;SDS011;62316;48.920;2.342;2022-09-01T02:30:16;14.33;;;12.67;;
73959;SDS011;62316;48.920;2.342;2022-09-01T02:32:41;10.67;;;9.00;;
73959;SDS011;62316;48.920;2.342;2022-09-01T02:35:07;15.00;;;13.33;;
73959;SDS011;62316;48.920;2.342;2022-09-01T02:37:34;10.00;;;10.00;;
73959;SDS011;62316;48.920;2.342;2022-09-01T02:40:00;13.67;;;12.33;;
73959;SDS011;62316;48.920;2.342;2022-09-01T02:42:26;12.67;;;12.33;;
73959;SDS011;62316;48.920;2.342;2022-09-01T02:44:53;14.00;;;13.00;;
73959;SDS011;62316;48.920;2.342;2022-09-01T02:47:19;13.00;;;13.00;;
73959;SDS011;62316;48.920;2.342;2022-09-01T02:49:49;11.33;;;11.33;;
73959;SDS011;62316;48.920;2.342;2022-09-01T02:52:14;9.75;;;9.75;;
73959;SDS011;62316;48.920;2.342;2022-09-01T02:54:42;15.00;;;12.50;;
73959;SDS011;62316;48.920;2.342;2022-09-01T02:57:09;11.67;;;11.67;;
73959;SDS011;62316;48.920;2.342;2022-09-01T02:59:35;13.75;;;13.25;;
73959;SDS011;62316;48.920;2.342;2022-09-01T03:02:01;13.00;;;13.00;;
73959;SDS011;62316;48.920;2.342;2022-09-01T03:04:27;14.67;;;13.33;;
73959;SDS011;62316;48.920;2.342;2022-09-01T03:06:59;14.25;;;14.25;;
73959;SDS011;62316;48.920;2.342;2022-09-01T03:09:25;14.00;;;14.00;;
73959;SDS011;62316;48.920;2.342;2022-09-01T03:11:52;10.75;;;10.50;;
73959;SDS011;62316;48.920;2.342;2022-09-01T03:14:19;11.00;;;11.00;;
73959;SDS011;62316;48.920;2.342;2022-09-01T03:16:45;10.50;;;10.50;;
73959;SDS011;62316;48.920;2.342;2022-09-01T03:19:11;14.33;;;12.00;;
73959;SDS011;62316;48.920;2.342;2022-09-01T03:21:38;14.25;;;14.25;;
73959;SDS011;62316;48.920;2.342;2022-09-01T03:24:07;11.75;;;11.75;;
73959;SDS011;62316;48.920;2.342;2022-09-01T03:26:34;14.75;;;14.25;;
73959;SDS011;62316;48.920;2.342;2022-09-01T03:29:00;17.25;;;16.25;;
73959;SDS011;62316;48.920;2.342;2022-09-01T03:31:25;13.50;;;13.50;;
73959;SDS011;62316;48.920;2.342;2022-09-01T03:33:52;15.00;;;14.00;;
73959;SDS011;62316;48.920;2.342;2022-09-01T03:36:19;19.25;;;16.50;;
73959;SDS011;62316;48.920;2.342;2022-09-01T03:38:45;16.00;;;11.25;;
73959;SDS011;62316;48.920;2.342;2022-09-01T03:41:13;14.75;;;13.75;;
73959;SDS011;62316;48.920;2.342;2022-09-01T03:43:42;15.75;;;15.00;;
73959;SDS011;62316;48.920;2.342;2022-09-01T03:46:07;14.50;;;14.50;;
73959;SDS011;62316;48.920;2.342;2022-09-01T03:48:34;15.00;;;13.00;;
73959;SDS011;62316;48.920;2.342;2022-09-01T03:50:59;13.00;;;12.00;;
73959;SDS011;62316;48.920;2.342;2022-09-01T03:53:28;19.25;;;16.25;;
73959;SDS011;62316;48.920;2.342;2022-09-01T03:55:56;20.25;;;17.00;;
73959;SDS011;62316;48.920;2.342;2022-09-01T03:58:23;16.75;;;15.00;;
73959;SDS011;62316;48.920;2.342;2022-09-01T04:00:50;13.00;;;12.25;;
73959;SDS011;62316;48.920;2.342;2022-09-01T04:03:19;20.25;;;16.75;;
73959;SDS011;62316;48.920;2.342;2022-09-01T04:05:47;13.25;;;13.25;;
73959;SDS011;62316;48.920;2.342;2022-09-01T04:08:15;17.25;;;17.00;;
73959;SDS011;62316;48.920;2.342;2022-09-01T04:10:52;19.00;;;16.75;;
73959;SDS011;62316;48.920;2.342;2022-09-01T04:13:19;13.25;;;12.00;;
73959;SDS011;62316;48.920;2.342;2022-09-01T04:15:45;14.50;;;14.00;;
73959;SDS011;62316;48.920;2.342;2022-09-01T04:18:11;27.50;;;23.00;;
73959;SDS011;62316;48.920;2.342;2022-09-01T04:20:45;19.50;;;14.75;;
73959;SDS011;62316;48.920;2.342;2022-09-01T04:23:15;19.25;;;16.50;;
73959;SDS011;62316;48.920;2.342;2022-09-01T04:25:44;21.25;;;20.00;;
73959;SDS011;62316;48.920;2.342;2022-09-01T04:28:10;12.75;;;12.75;;
73959;SDS011;62316;48.920;2.342;2022-09-01T04:30:47;13.25;;;13.25;;
73959;SDS011;62316;48.920;2.342;2022-09-01T04:33:15;14.00;;;12.00;;
73959;SDS011;62316;48.920;2.342;2022-09-01T04:35:41;18.00;;;15.75;;
73959;SDS011;62316;48.920;2.342;2022-09-01T04:38:07;25.00;;;22.00;;
73959;SDS011;62316;48.920;2.342;2022-09-01T04:40:36;12.75;;;11.75;;
73959;SDS011;62316;48.920;2.342;2022-09-01T04:43:05;15.25;;;15.00;;
73959;SDS011;62316;48.920;2.342;2022-09-01T04:45:31;16.00;;;14.75;;
73959;SDS011;62316;48.920;2.342;2022-09-01T04:48:00;18.50;;;12.75;;
73959;SDS011;62316;48.920;2.342;2022-09-01T04:50:27;26.50;;;23.75;;
73959;SDS011;62316;48.920;2.342;2022-09-01T04:52:54;17.50;;;17.50;;
73959;SDS011;62316;48.920;2.342;2022-09-01T04:55:22;14.00;;;13.75;;
73959;SDS011;62316;48.920;2.342;2022-09-01T04:57:48;12.50;;;11.00;;
73959;SDS011;62316;48.920;2.342;2022-09-01T05:00:18;12.00;;;10.75;;
73959;SDS011;62316;48.920;2.342;2022-09-01T05:02:51;18.50;;;18.50;;
73959;SDS011;62316;48.920;2.342;2022-09-01T05:05:18;18.25;;;15.25;;
73959;SDS011;62316;48.920;2.342;2022-09-01T05:07:45;17.75;;;17.75;;
73959;SDS011;62316;48.920;2.342;2022-09-01T05:10:14;21.25;;;20.50;;
73959;SDS011;62316;48.920;2.342;2022-09-01T05:12:42;17.75;;;16.50;;
73959;SDS011;62316;48.920;2.342;2022-09-01T05:15:09;15.25;;;15.25;;
73959;SDS011;62316;48.920;2.342;2022-09-01T05:17:36;21.50;;;18.75;;
73959;SDS011;62316;48.920;2.342;2022-09-01T05:20:02;21.50;;;21.50;;
73959;SDS011;62316;48.920;2.342;2022-09-01T05:22:28;13.00;;;13.00;;
73959;SDS011;62316;48.920;2.342;2022-09-01T05:24:55;17.50;;;15.50;;
73959;SDS011;62316;48.920;2.342;2022-09-01T05:27:26;16.75;;;16.00;;
73959;SDS011;62316;48.920;2.342;2022-09-01T05:29:53;20.75;;;18.75;;
73959;SDS011;62316;48.920;2.342;2022-09-01T05:32:18;20.00;;;17.00;;
73959;SDS011;62316;48.920;2.342;2022-09-01T05:34:49;21.25;;;17.50;;
73959;SDS011;62316;48.920;2.342;2022-09-01T05:37:15;15.75;;;14.25;;
73959;SDS011;62316;48.920;2.342;2022-09-01T05:39:41;20.50;;;16.75;;
73959;SDS011;62316;48.920;2.342;2022-09-01T05:42:06;16.00;;;13.50;;
73959;SDS011;62316;48.920;2.342;2022-09-01T05:44:32;16.75;;;16.50;;
73959;SDS011;62316;48.920;2.342;2022-09-01T05:46:57;16.75;;;16.75;;
73959;SDS011;62316;48.920;2.342;2022-09-01T05:49:24;20.50;;;19.00;;
73959;SDS011;62316;48.920;2.342;2022-09-01T05:51:50;16.50;;;14.50;;
73959;SDS011;62316;48.920;2.342;2022-09-01T05:54:21;15.75;;;14.75;;
73959;SDS011;62316;48.920;2.342;2022-09-01T05:56:51;18.75;;;16.75;;
73959;SDS011;62316;48.920;2.342;2022-09-01T05:59:17;20.00;;;17.00;;
73959;SDS011;62316;48.920;2.342;2022-09-01T06:01:45;15.25;;;14.50;;
73959;SDS011;62316;48.920;2.342;2022-09-01T06:04:12;17.00;;;16.50;;
73959;SDS011;62316;48.920;2.342;2022-09-01T06:06:42;18.00;;;15.75;;
73959;SDS011;62316;48.920;2.342;2022-09-01T06:09:13;16.00;;;16.00;;
73959;SDS011;62316;48.920;2.342;2022-09-01T06:11:42;18.00;;;16.25;;
73959;SDS011;62316;48.920;2.342;2022-09-01T06:14:07;26.75;;;24.75;;
73959;SDS011;62316;48.920;2.342;2022-09-01T06:16:35;15.50;;;13.50;;
73959;SDS011;62316;48.920;2.342;2022-09-01T06:19:01;17.50;;;15.50;;
73959;SDS011;62316;48.920;2.342;2022-09-01T06:21:27;19.00;;;14.75;;
73959;SDS011;62316;48.920;2.342;2022-09-01T06:23:53;15.50;;;14.75;;
73959;SDS011;62316;48.920;2.342;2022-09-01T06:26:25;18.25;;;16.00;;
73959;SDS011;62316;48.920;2.342;2022-09-01T06:28:53;15.50;;;14.25;;
73959;SDS011;62316;48.920;2.342;2022-09-01T06:31:20;17.75;;;16.75;;
73959;SDS011;62316;48.920;2.342;2022-09-01T06:33:52;15.75;;;14.25;;
73959;SDS011;62316;48.920;2.342;2022-09-01T06:36:21;17.00;;;15.25;;
73959;SDS011;62316;48.920;2.342;2022-09-01T06:38:49;20.25;;;17.25;;
73959;SDS011;62316;48.920;2.342;2022-09-01T06:41:15;18.67;;;15.33;;
73959;SDS011;62316;48.920;2.342;2022-09-01T06:43:44;16.00;;;13.67;;
73959;SDS011;62316;48.920;2.342;2022-09-01T06:46:13;26.75;;;25.75;;
73959;SDS011;62316;48.920;2.342;2022-09-01T06:48:40;17.00;;;16.00;;
73959;SDS011;62316;48.920;2.342;2022-09-01T06:51:11;14.25;;;14.25;;
73959;SDS011;62316;48.920;2.342;2022-09-01T06:53:38;14.50;;;13.75;;
73959;SDS011;62316;48.920;2.342;2022-09-01T06:56:04;13.00;;;13.00;;
73959;SDS011;62316;48.920;2.342;2022-09-01T06:58:30;16.75;;;16.00;;
73959;SDS011;62316;48.920;2.342;2022-09-01T07:00:57;16.50;;;15.00;;
73959;SDS011;62316;48.920;2.342;2022-09-01T07:03:22;14.75;;;13.75;;
73959;SDS011;62316;48.920;2.342;2022-09-01T07:05:50;23.50;;;19.50;;
73959;SDS011;62316;48.920;2.342;2022-09-01T07:08:16;14.25;;;13.25;;
73959;SDS011;62316;48.920;2.342;2022-09-01T07:10:49;20.00;;;16.00;;
73959;SDS011;62316;48.920;2.342;2022-09-01T07:13:16;14.75;;;13.00;;
73959;SDS011;62316;48.920;2.342;2022-09-01T07:15:46;18.67;;;14.33;;
73959;SDS011;62316;48.920;2.342;2022-09-01T07:18:14;18.75;;;14.00;;
73959;SDS011;62316;48.920;2.342;2022-09-01T07:20:45;17.50;;;15.25;;
73959;SDS011;62316;48.920;2.342;2022-09-01T07:23:14;15.75;;;14.75;;
73959;SDS011;62316;48.920;2.342;2022-09-01T07:25:41;12.25;;;12.00;;
73959;SDS011;62316;48.920;2.342;2022-09-01T07:28:09;13.25;;;13.25;;
73959;SDS011;62316;48.920;2.342;2022-09-01T07:30:42;15.75;;;15.00;;
73959;SDS011;62316;48.920;2.342;2022-09-01T07:33:10;17.00;;;15.33;;
73959;SDS011;62316;48.920;2.342;2022-09-01T07:35:37;14.25;;;13.25;;
73959;SDS011;62316;48.920;2.342;2022-09-01T07:38:04;9.25;;;8.75;;
73959;SDS011;62316;48.920;2.342;2022-09-01T07:40:34;14.50;;;14.50;;
73959;SDS011;62316;48.920;2.342;2022-09-01T07:43:03;11.50;;;9.50;;
73959;SDS011;62316;48.920;2.342;2022-09-01T07:45:36;12.75;;;12.50;;
73959;SDS011;62316;48.920;2.342;2022-09-01T07:48:07;17.00;;;14.75;;
73959;SDS011;62316;48.920;2.342;2022-09-01T07:50:39;14.25;;;13.25;;
73959;SDS011;62316;48.920;2.342;2022-09-01T07:53:08;15.00;;;14.50;;
73959;SDS011;62316;48.920;2.342;2022-09-01T07:55:38;20.75;;;19.50;;
73959;SDS011;62316;48.920;2.342;2022-09-01T07:58:05;15.00;;;12.25;;
73959;SDS011;62316;48.920;2.342;2022-09-01T08:00:30;14.50;;;13.75;;
73959;SDS011;62316;48.920;2.342;2022-09-01T08:02:57;16.75;;;15.00;;
73959;SDS011;62316;48.920;2.342;2022-09-01T08:05:24;16.75;;;16.00;;
73959;SDS011;62316;48.920;2.342;2022-09-01T08:07:50;18.75;;;14.75;;
73959;SDS011;62316;48.920;2.342;2022-09-01T08:10:16;14.75;;;12.75;;
73959;SDS011;62316;48.920;2.342;2022-09-01T08:12:42;13.50;;;12.00;;
73959;SDS011;62316;48.920;2.342;2022-09-01T08:15:08;15.25;;;12.50;;
73959;SDS011;62316;48.920;2.342;2022-09-01T08:17:36;14.75;;;13.50;;
73959;SDS011;62316;48.920;2.342;2022-09-01T08:20:01;16.50;;;14.50;;
73959;SDS011;62316;48.920;2.342;2022-09-01T08:22:27;14.00;;;13.25;;
73959;SDS011;62316;48.920;2.342;2022-09-01T08:24:53;15.50;;;13.75;;
73959;SDS011;62316;48.920;2.342;2022-09-01T08:27:19;15.25;;;14.00;;
73959;SDS011;62316;48.920;2.342;2022-09-01T08:29:44;16.50;;;16.50;;
73959;SDS011;62316;48.920;2.342;2022-09-01T08:32:10;19.00;;;15.25;;
73959;SDS011;62316;48.920;2.342;2022-09-01T08:34:36;21.75;;;17.00;;
73959;SDS011;62316;48.920;2.342;2022-09-01T08:37:01;16.25;;;14.75;;
73959;SDS011;62316;48.920;2.342;2022-09-01T08:39:27;17.75;;;16.75;;
73959;SDS011;62316;48.920;2.342;2022-09-01T08:47:37;17.00;;;14.75;;
73959;SDS011;62316;48.920;2.342;2022-09-01T08:50:03;20.75;;;19.75;;
73959;SDS011;62316;48.920;2.342;2022-09-01T08:52:31;17.25;;;17.00;;
73959;SDS011;62316;48.920;2.342;2022-09-01T08:55:02;20.00;;;16.75;;
73959;SDS011;62316;48.920;2.342;2022-09-01T08:57:36;22.50;;;17.50;;
73959;SDS011;62316;48.920;2.342;2022-09-01T09:00:05;17.50;;;12.50;;
73959;SDS011;62316;48.920;2.342;2022-09-01T09:16:26;17.00;;;15.75;;
73959;SDS011;62316;48.920;2.342;2022-09-01T09:18:56;15.00;;;14.75;;
73959;SDS011;62316;48.920;2.342;2022-09-01T09:21:32;15.75;;;15.25;;
73959;SDS011;62316;48.920;2.342;2022-09-01T09:26:57;14.25;;;13.50;;
73959;SDS011;62316;48.920;2.342;2022-09-01T09:29:24;19.75;;;19.25;;
73959;SDS011;62316;48.920;2.342;2022-09-01T09:32:06;17.25;;;15.50;;
73959;SDS011;62316;48.920;2.342;2022-09-01T09:34:35;21.00;;;20.75;;
73959;SDS011;62316;48.920;2.342;2022-09-01T09:39:40;17.00;;;15.50;;
73959;SDS011;62316;48.920;2.342;2022-09-01T09:42:07;17.25;;;15.25;;
73959;SDS011;62316;48.920;2.342;2022-09-01T09:44:47;15.50;;;14.00;;
73959;SDS011;62316;48.920;2.342;2022-09-01T09:47:36;18.75;;;18.75;;
73959;SDS011;62316;48.920;2.342;2022-09-01T09:53:11;15.75;;;14.25;;
73959;SDS011;62316;48.920;2.342;2022-09-01T09:56:01;19.25;;;18.00;;
73959;SDS011;62316;48.920;2.342;2022-09-01T09:58:42;15.75;;;15.75;;
73959;SDS011;62316;48.920;2.342;2022-09-01T10:03:50;19.50;;;15.75;;
73959;SDS011;62316;48.920;2.342;2022-09-01T10:08:59;25.25;;;23.00;;
73959;SDS011;62316;48.920;2.342;2022-09-01T10:11:37;21.50;;;18.50;;
73959;SDS011;62316;48.920;2.342;2022-09-01T10:14:05;20.75;;;19.00;;
73959;SDS011;62316;48.920;2.342;2022-09-01T10:16:37;16.50;;;15.00;;
73959;SDS011;62316;48.920;2.342;2022-09-01T10:19:04;20.25;;;18.75;;
73959;SDS011;62316;48.920;2.342;2022-09-01T10:21:33;20.25;;;17.00;;
73959;SDS011;62316;48.920;2.342;2022-09-01T10:24:00;17.50;;;17.50;;
73959;SDS011;62316;48.920;2.342;2022-09-01T10:26:31;19.00;;;19.00;;
73959;SDS011;62316;48.920;2.342;2022-09-01T10:29:05;17.50;;;17.50;;
73959;SDS011;62316;48.920;2.342;2022-09-01T10:31:34;19.25;;;17.50;;
73959;SDS011;62316;48.920;2.342;2022-09-01T10:34:01;16.75;;;15.25;;
73959;SDS011;62316;48.920;2.342;2022-09-01T10:36:28;10.00;;;7.75;;
73959;SDS011;62316;48.920;2.342;2022-09-01T10:38:55;18.00;;;16.00;;
73959;SDS011;62316;48.920;2.342;2022-09-01T10:44:32;19.75;;;16.25;;
73959;SDS011;62316;48.920;2.342;2022-09-01T10:55:07;15.00;;;13.00;;
73959;SDS011;62316;48.920;2.342;2022-09-01T11:16:34;17.00;;;11.75;;
73959;SDS011;62316;48.920;2.342;2022-09-01T11:22:01;9.00;;;9.00;;
73959;SDS011;62316;48.920;2.342;2022-09-01T11:27:05;8.50;;;8.50;;
73959;SDS011;62316;48.920;2.342;2022-09-01T11:32:19;7.25;;;7.25;;
73959;SDS011;62316;48.920;2.342;2022-09-01T11:34:48;9.50;;;9.50;;
73959;SDS011;62316;48.920;2.342;2022-09-01T11:37:17;10.00;;;9.00;;
73959;SDS011;62316;48.920;2.342;2022-09-01T11:39:48;7.75;;;7.75;;
73959;SDS011;62316;48.920;2.342;2022-09-01T11:42:17;7.00;;;6.00;;
73959;SDS011;62316;48.920;2.342;2022-09-01T11:47:22;8.00;;;7.00;;
73959;SDS011;62316;48.920;2.342;2022-09-01T11:50:01;9.00;;;9.00;;
73959;SDS011;62316;48.920;2.342;2022-09-01T11:52:29;8.00;;;6.67;;
73959;SDS011;62316;48.920;2.342;2022-09-01T11:54:57;6.75;;;6.75;;
73959;SDS011;62316;48.920;2.342;2022-09-01T11:57:27;8.33;;;8.00;;
73959;SDS011;62316;48.920;2.342;2022-09-01T11:59:54;5.50;;;5.50;;
73959;SDS011;62316;48.920;2.342;2022-09-01T12:04:56;6.50;;;6.00;;
73959;SDS011;62316;48.920;2.342;2022-09-01T12:07:38;6.00;;;6.00;;
73959;SDS011;62316;48.920;2.342;2022-09-01T12:10:14;8.33;;;6.33;;
73959;SDS011;62316;48.920;2.342;2022-09-01T12:15:27;8.50;;;8.50;;
73959;SDS011;62316;48.920;2.342;2022-09-01T12:18:06;7.50;;;7.50;;
73959;SDS011;62316;48.920;2.342;2022-09-01T12:20:34;11.50;;;9.75;;
73959;SDS011;62316;48.920;2.342;2022-09-01T12:23:02;9.00;;;8.33;;
73959;SDS011;62316;48.920;2.342;2022-09-01T12:25:41;10.50;;;8.75;;
73959;SDS011;62316;48.920;2.342;2022-09-01T12:28:06;7.00;;;7.00;;
73959;SDS011;62316;48.920;2.342;2022-09-01T12:30:32;7.00;;;7.00;;
73959;SDS011;62316;48.920;2.342;2022-09-01T12:33:05;9.50;;;8.25;;
73959;SDS011;62316;48.920;2.342;2022-09-01T12:35:31;8.33;;;7.33;;
73959;SDS011;62316;48.920;2.342;2022-09-01T12:40:50;7.00;;;5.75;;
73959;SDS011;62316;48.920;2.342;2022-09-01T12:43:30;19.75;;;19.75;;
73959;SDS011;62316;48.920;2.342;2022-09-01T12:46:03;10.25;;;7.50;;
73959;SDS011;62316;48.920;2.342;2022-09-01T12:48:37;7.75;;;7.75;;
73959;SDS011;62316;48.920;2.342;2022-09-01T12:53:53;7.25;;;7.25;;
73959;SDS011;62316;48.920;2.342;2022-09-01T12:56:22;8.00;;;7.00;;
73959;SDS011;62316;48.920;2.342;2022-09-01T12:59:02;12.25;;;12.25;;
73959;SDS011;62316;48.920;2.342;2022-09-01T13:01:31;13.25;;;11.50;;
73959;SDS011;62316;48.920;2.342;2022-09-01T13:04:06;13.25;;;11.75;;
73959;SDS011;62316;48.920;2.342;2022-09-01T13:06:34;9.50;;;8.00;;
73959;SDS011;62316;48.920;2.342;2022-09-01T13:09:00;8.50;;;7.25;;
73959;SDS011;62316;48.920;2.342;2022-09-01T13:11:25;10.00;;;7.50;;
73959;SDS011;62316;48.920;2.342;2022-09-01T13:13:51;7.00;;;7.00;;
73959;SDS011;62316;48.920;2.342;2022-09-01T13:16:16;6.00;;;5.50;;
73959;SDS011;62316;48.920;2.342;2022-09-01T13:18:42;5.75;;;5.75;;
73959;SDS011;62316;48.920;2.342;2022-09-01T13:21:07;8.67;;;8.67;;
73959;SDS011;62316;48.920;2.342;2022-09-01T13:23:33;8.67;;;8.67;;
73959;SDS011;62316;48.920;2.342;2022-09-01T13:25:58;10.50;;;9.00;;
73959;SDS011;62316;48.920;2.342;2022-09-01T13:28:24;8.33;;;8.33;;
73959;SDS011;62316;48.920;2.342;2022-09-01T13:30:57;7.00;;;7.00;;
73959;SDS011;62316;48.920;2.342;2022-09-01T13:33:25;7.25;;;7.25;;
73959;SDS011;62316;48.920;2.342;2022-09-01T13:35:51;8.67;;;8.00;;
73959;SDS011;62316;48.920;2.342;2022-09-01T13:38:17;9.33;;;8.33;;
73959;SDS011;62316;48.920;2.342;2022-09-01T13:40:43;7.67;;;6.33;;
73959;SDS011;62316;48.920;2.342;2022-09-01T13:43:10;7.00;;;7.00;;
73959;SDS011;62316;48.920;2.342;2022-09-01T13:45:36;7.25;;;7.25;;
73959;SDS011;62316;48.920;2.342;2022-09-01T13:48:04;6.00;;;6.00;;
73959;SDS011;62316;48.920;2.342;2022-09-01T13:50:31;7.00;;;7.00;;
73959;SDS011;62316;48.920;2.342;2022-09-01T13:52:56;4.33;;;4.33;;
73959;SDS011;62316;48.920;2.342;2022-09-01T13:55:25;4.33;;;4.33;;
73959;SDS011;62316;48.920;2.342;2022-09-01T13:57:52;7.00;;;6.25;;
73959;SDS011;62316;48.920;2.342;2022-09-01T14:00:19;7.50;;;7.50;;
73959;SDS011;62316;48.920;2.342;2022-09-01T14:02:48;7.33;;;7.33;;
73959;SDS011;62316;48.920;2.342;2022-09-01T14:08:10;3.67;;;3.67;;
73959;SDS011;62316;48.920;2.342;2022-09-01T14:10:38;6.50;;;6.50;;
73959;SDS011;62316;48.920;2.342;2022-09-01T14:13:07;5.00;;;5.00;;
73959;SDS011;62316;48.920;2.342;2022-09-01T14:15:33;8.00;;;8.00;;
73959;SDS011;62316;48.920;2.342;2022-09-01T14:18:00;9.00;;;6.75;;
73959;SDS011;62316;48.920;2.342;2022-09-01T14:20:27;6.00;;;6.00;;
73959;SDS011;62316;48.920;2.342;2022-09-01T14:22:58;6.75;;;6.75;;
73959;SDS011;62316;48.920;2.342;2022-09-01T14:25:24;8.33;;;8.33;;
73959;SDS011;62316;48.920;2.342;2022-09-01T14:27:50;7.25;;;7.25;;
73959;SDS011;62316;48.920;2.342;2022-09-01T14:30:19;8.00;;;8.00;;
73959;SDS011;62316;48.920;2.342;2022-09-01T14:32:46;7.75;;;7.75;;
73959;SDS011;62316;48.920;2.342;2022-09-01T14:35:13;9.00;;;7.75;;
73959;SDS011;62316;48.920;2.342;2022-09-01T14:37:39;8.00;;;8.00;;
73959;SDS011;62316;48.920;2.342;2022-09-01T14:40:05;12.00;;;8.75;;
73959;SDS011;62316;48.920;2.342;2022-09-01T14:42:32;9.33;;;8.00;;
73959;SDS011;62316;48.920;2.342;2022-09-01T14:44:58;11.00;;;9.50;;
73959;SDS011;62316;48.920;2.342;2022-09-01T14:47:24;8.75;;;7.75;;
73959;SDS011;62316;48.920;2.342;2022-09-01T14:49:50;8.00;;;7.33;;
73959;SDS011;62316;48.920;2.342;2022-09-01T14:52:17;5.50;;;5.50;;
73959;SDS011;62316;48.920;2.342;2022-09-01T14:54:43;10.33;;;9.67;;
73959;SDS011;62316;48.920;2.342;2022-09-01T14:57:09;6.67;;;6.67;;
73959;SDS011;62316;48.920;2.342;2022-09-01T14:59:35;8.00;;;8.00;;
73959;SDS011;62316;48.920;2.342;2022-09-01T15:02:01;9.00;;;8.25;;
73959;SDS011;62316;48.920;2.342;2022-09-01T15:04:27;9.75;;;8.75;;
73959;SDS011;62316;48.920;2.342;2022-09-01T15:06:53;8.50;;;8.50;;
73959;SDS011;62316;48.920;2.342;2022-09-01T15:09:19;12.33;;;12.00;;
73959;SDS011;62316;48.920;2.342;2022-09-01T15:11:44;7.00;;;7.00;;
73959;SDS011;62316;48.920;2.342;2022-09-01T15:14:10;6.50;;;5.75;;
73959;SDS011;62316;48.920;2.342;2022-09-01T15:16:36;5.00;;;5.00;;
73959;SDS011;62316;48.920;2.342;2022-09-01T15:19:05;2.25;;;2.00;;
73959;SDS011;62316;48.920;2.342;2022-09-01T15:21:34;9.75;;;8.50;;
73959;SDS011;62316;48.920;2.342;2022-09-01T15:24:00;7.00;;;7.00;;
73959;SDS011;62316;48.920;2.342;2022-09-01T15:26:26;9.75;;;8.50;;
73959;SDS011;62316;48.920;2.342;2022-09-01T15:28:52;9.00;;;9.00;;
73959;SDS011;62316;48.920;2.342;2022-09-01T15:31:18;10.75;;;10.25;;
73959;SDS011;62316;48.920;2.342;2022-09-01T15:33:45;8.00;;;8.00;;
73959;SDS011;62316;48.920;2.342;2022-09-01T15:36:16;7.75;;;7.00;;
73959;SDS011;62316;48.920;2.342;2022-09-01T15:38:43;10.50;;;10.00;;
73959;SDS011;62316;48.920;2.342;2022-09-01T15:41:14;8.00;;;7.25;;
73959;SDS011;62316;48.920;2.342;2022-09-01T15:43:43;9.25;;;8.25;;
73959;SDS011;62316;48.920;2.342;2022-09-01T15:46:09;11.75;;;11.75;;
73959;SDS011;62316;48.920;2.342;2022-09-01T15:48:38;9.00;;;9.00;;
73959;SDS011;62316;48.920;2.342;2022-09-01T15:51:46;11.25;;;10.25;;
73959;SDS011;62316;48.920;2.342;2022-09-01T15:54:04;7.00;;;6.75;;
73959;SDS011;62316;48.920;2.342;2022-09-01T15:56:34;10.75;;;10.75;;
73959;SDS011;62316;48.920;2.342;2022-09-01T15:59:00;8.25;;;8.25;;
73959;SDS011;62316;48.920;2.342;2022-09-01T16:01:26;8.00;;;7.00;;
73959;SDS011;62316;48.920;2.342;2022-09-01T16:03:53;9.75;;;9.00;;
73959;SDS011;62316;48.920;2.342;2022-09-01T16:06:19;10.25;;;9.25;;
73959;SDS011;62316;48.920;2.342;2022-09-01T16:08:46;9.75;;;7.50;;
73959;SDS011;62316;48.920;2.342;2022-09-01T16:11:11;5.50;;;5.25;;
73959;SDS011;62316;48.920;2.342;2022-09-01T16:13:40;9.50;;;8.50;;